sensor_id;sensor_type;location;lat;lon;timestamp;temperature;humidity
65239;SHT30;51827;51.186;6.926;2024-02-15T00:00:19;19.47;57.42
65239;SHT30;51827;51.186;6.926;2024-02-15T00:01:20;19.45;57.42
65239;SHT30;51827;51.186;6.926;2024-02-15T00:02:20;19.45;57.42
65239;SHT30;51827;51.186;6.926;2024-02-15T00:03:20;19.43;57.45
65239;SHT30;51827;51.186;6.926;2024-02-15T00:04:21;19.45;57.46
65239;SHT30;51827;51.186;6.926;2024-02-15T00:05:21;19.43;57.45
65239;SHT30;51827;51.186;6.926;2024-02-15T00:06:21;19.43;57.45
65239;SHT30;51827;51.186;6.926;2024-02-15T00:07:21;19.46;57.46
65239;SHT30;51827;51.186;6.926;2024-02-15T00:08:21;19.43;57.45
65239;SHT30;51827;51.186;6.926;2024-02-15T00:09:22;19.46;57.46
65239;SHT30;51827;51.186;6.926;2024-02-15T00:10:22;19.45;57.46
65239;SHT30;51827;51.186;6.926;2024-02-15T00:11:22;19.43;57.46
65239;SHT30;51827;51.186;6.926;2024-02-15T00:12:23;19.46;57.45
65239;SHT30;51827;51.186;6.926;2024-02-15T00:13:23;19.45;57.47
65239;SHT30;51827;51.186;6.926;2024-02-15T00:14:23;19.43;57.45
65239;SHT30;51827;51.186;6.926;2024-02-15T00:15:26;19.43;57.42
65239;SHT30;51827;51.186;6.926;2024-02-15T00:16:27;19.45;57.48
65239;SHT30;51827;51.186;6.926;2024-02-15T00:17:27;19.45;57.46
65239;SHT30;51827;51.186;6.926;2024-02-15T00:18:28;19.45;57.49
65239;SHT30;51827;51.186;6.926;2024-02-15T00:19:28;19.45;57.42
65239;SHT30;51827;51.186;6.926;2024-02-15T00:20:28;19.47;57.47
65239;SHT30;51827;51.186;6.926;2024-02-15T00:21:28;19.43;57.46
65239;SHT30;51827;51.186;6.926;2024-02-15T00:22:29;19.45;57.48
65239;SHT30;51827;51.186;6.926;2024-02-15T00:23:29;19.45;57.48
65239;SHT30;51827;51.186;6.926;2024-02-15T00:24:29;19.46;57.47
65239;SHT30;51827;51.186;6.926;2024-02-15T00:25:30;19.45;57.46
65239;SHT30;51827;51.186;6.926;2024-02-15T00:26:30;19.45;57.45
65239;SHT30;51827;51.186;6.926;2024-02-15T00:27:30;19.46;57.46
65239;SHT30;51827;51.186;6.926;2024-02-15T00:28:30;19.46;57.45
65239;SHT30;51827;51.186;6.926;2024-02-15T00:29:31;19.45;57.49
65239;SHT30;51827;51.186;6.926;2024-02-15T00:30:31;19.47;57.46
65239;SHT30;51827;51.186;6.926;2024-02-15T00:31:31;19.45;57.47
65239;SHT30;51827;51.186;6.926;2024-02-15T00:32:31;19.45;57.45
65239;SHT30;51827;51.186;6.926;2024-02-15T00:33:32;19.45;57.45
65239;SHT30;51827;51.186;6.926;2024-02-15T00:34:32;19.45;57.45
65239;SHT30;51827;51.186;6.926;2024-02-15T00:35:32;19.46;57.44
65239;SHT30;51827;51.186;6.926;2024-02-15T00:36:32;19.45;57.50
65239;SHT30;51827;51.186;6.926;2024-02-15T00:37:33;19.45;57.50
65239;SHT30;51827;51.186;6.926;2024-02-15T00:38:34;19.42;57.49
65239;SHT30;51827;51.186;6.926;2024-02-15T00:39:34;19.45;57.52
65239;SHT30;51827;51.186;6.926;2024-02-15T00:40:34;19.43;57.48
65239;SHT30;51827;51.186;6.926;2024-02-15T00:41:34;19.43;57.49
65239;SHT30;51827;51.186;6.926;2024-02-15T00:42:35;19.45;57.48
65239;SHT30;51827;51.186;6.926;2024-02-15T00:43:35;19.45;57.50
65239;SHT30;51827;51.186;6.926;2024-02-15T00:44:35;19.43;57.50
65239;SHT30;51827;51.186;6.926;2024-02-15T00:45:36;19.42;57.53
65239;SHT30;51827;51.186;6.926;2024-02-15T00:46:37;19.45;57.52
65239;SHT30;51827;51.186;6.926;2024-02-15T00:47:37;19.46;57.53
65239;SHT30;51827;51.186;6.926;2024-02-15T00:48:37;19.45;57.48
65239;SHT30;51827;51.186;6.926;2024-02-15T00:49:38;19.46;57.48
65239;SHT30;51827;51.186;6.926;2024-02-15T00:50:38;19.43;57.48
65239;SHT30;51827;51.186;6.926;2024-02-15T00:51:38;19.46;57.50
65239;SHT30;51827;51.186;6.926;2024-02-15T00:52:38;19.45;57.52
65239;SHT30;51827;51.186;6.926;2024-02-15T00:53:39;19.45;57.50
65239;SHT30;51827;51.186;6.926;2024-02-15T00:54:40;19.46;57.50
65239;SHT30;51827;51.186;6.926;2024-02-15T00:55:40;19.45;57.50
65239;SHT30;51827;51.186;6.926;2024-02-15T00:56:40;19.45;57.53
65239;SHT30;51827;51.186;6.926;2024-02-15T00:57:40;19.45;57.51
65239;SHT30;51827;51.186;6.926;2024-02-15T00:58:41;19.43;57.51
65239;SHT30;51827;51.186;6.926;2024-02-15T00:59:41;19.45;57.47
65239;SHT30;51827;51.186;6.926;2024-02-15T01:00:41;19.45;57.57
65239;SHT30;51827;51.186;6.926;2024-02-15T01:01:41;19.46;57.52
65239;SHT30;51827;51.186;6.926;2024-02-15T01:02:42;19.46;57.53
65239;SHT30;51827;51.186;6.926;2024-02-15T01:03:42;19.45;57.51
65239;SHT30;51827;51.186;6.926;2024-02-15T01:04:42;19.45;57.50
65239;SHT30;51827;51.186;6.926;2024-02-15T01:05:42;19.45;57.51
65239;SHT30;51827;51.186;6.926;2024-02-15T01:06:43;19.46;57.49
65239;SHT30;51827;51.186;6.926;2024-02-15T01:07:43;19.46;57.46
65239;SHT30;51827;51.186;6.926;2024-02-15T01:08:43;19.43;57.50
65239;SHT30;51827;51.186;6.926;2024-02-15T01:09:43;19.46;57.50
65239;SHT30;51827;51.186;6.926;2024-02-15T01:10:43;19.43;57.51
65239;SHT30;51827;51.186;6.926;2024-02-15T01:11:45;19.45;57.52
65239;SHT30;51827;51.186;6.926;2024-02-15T01:12:45;19.45;57.48
65239;SHT30;51827;51.186;6.926;2024-02-15T01:13:45;19.45;57.42
65239;SHT30;51827;51.186;6.926;2024-02-15T01:14:45;19.43;57.42
65239;SHT30;51827;51.186;6.926;2024-02-15T01:15:45;19.46;57.45
65239;SHT30;51827;51.186;6.926;2024-02-15T01:16:46;19.46;57.44
65239;SHT30;51827;51.186;6.926;2024-02-15T01:17:46;19.46;57.40
65239;SHT30;51827;51.186;6.926;2024-02-15T01:18:47;19.45;57.40
65239;SHT30;51827;51.186;6.926;2024-02-15T01:19:47;19.46;57.40
65239;SHT30;51827;51.186;6.926;2024-02-15T01:20:47;19.43;57.40
65239;SHT30;51827;51.186;6.926;2024-02-15T01:21:47;19.45;57.38
65239;SHT30;51827;51.186;6.926;2024-02-15T01:22:48;19.45;57.41
65239;SHT30;51827;51.186;6.926;2024-02-15T01:23:48;19.45;57.38
65239;SHT30;51827;51.186;6.926;2024-02-15T01:24:48;19.43;57.39
65239;SHT30;51827;51.186;6.926;2024-02-15T01:25:48;19.45;57.38
65239;SHT30;51827;51.186;6.926;2024-02-15T01:26:49;19.46;57.36
65239;SHT30;51827;51.186;6.926;2024-02-15T01:27:49;19.43;57.42
65239;SHT30;51827;51.186;6.926;2024-02-15T01:28:49;19.47;57.37
65239;SHT30;51827;51.186;6.926;2024-02-15T01:29:49;19.45;57.38
65239;SHT30;51827;51.186;6.926;2024-02-15T01:30:49;19.46;57.37
65239;SHT30;51827;51.186;6.926;2024-02-15T01:31:50;19.46;57.44
65239;SHT30;51827;51.186;6.926;2024-02-15T01:32:50;19.46;57.39
65239;SHT30;51827;51.186;6.926;2024-02-15T01:33:50;19.45;57.35
65239;SHT30;51827;51.186;6.926;2024-02-15T01:34:51;19.46;57.35
65239;SHT30;51827;51.186;6.926;2024-02-15T01:35:51;19.45;57.38
65239;SHT30;51827;51.186;6.926;2024-02-15T01:36:51;19.47;57.36
65239;SHT30;51827;51.186;6.926;2024-02-15T01:37:52;19.45;57.42
65239;SHT30;51827;51.186;6.926;2024-02-15T01:38:52;19.46;57.38
65239;SHT30;51827;51.186;6.926;2024-02-15T01:39:52;19.45;57.36
65239;SHT30;51827;51.186;6.926;2024-02-15T01:40:52;19.43;57.36
65239;SHT30;51827;51.186;6.926;2024-02-15T01:41:53;19.47;57.34
65239;SHT30;51827;51.186;6.926;2024-02-15T01:42:53;19.47;57.38
65239;SHT30;51827;51.186;6.926;2024-02-15T01:43:53;19.47;57.40
65239;SHT30;51827;51.186;6.926;2024-02-15T01:44:53;19.46;57.38
65239;SHT30;51827;51.186;6.926;2024-02-15T01:45:54;19.46;57.37
65239;SHT30;51827;51.186;6.926;2024-02-15T01:46:55;19.46;57.39
65239;SHT30;51827;51.186;6.926;2024-02-15T01:47:55;19.45;57.37
65239;SHT30;51827;51.186;6.926;2024-02-15T01:48:55;19.46;57.33
65239;SHT30;51827;51.186;6.926;2024-02-15T01:49:56;19.46;57.37
65239;SHT30;51827;51.186;6.926;2024-02-15T01:50:57;19.45;57.33
65239;SHT30;51827;51.186;6.926;2024-02-15T01:51:58;19.45;57.38
65239;SHT30;51827;51.186;6.926;2024-02-15T01:53:01;19.43;57.40
65239;SHT30;51827;51.186;6.926;2024-02-15T01:54:05;19.46;57.41
65239;SHT30;51827;51.186;6.926;2024-02-15T01:55:05;19.45;57.35
65239;SHT30;51827;51.186;6.926;2024-02-15T01:56:06;19.45;57.41
65239;SHT30;51827;51.186;6.926;2024-02-15T01:57:07;19.43;57.40
65239;SHT30;51827;51.186;6.926;2024-02-15T01:58:07;19.45;57.36
65239;SHT30;51827;51.186;6.926;2024-02-15T01:59:07;19.46;57.35
65239;SHT30;51827;51.186;6.926;2024-02-15T02:00:08;19.45;57.36
65239;SHT30;51827;51.186;6.926;2024-02-15T02:01:09;19.46;57.37
65239;SHT30;51827;51.186;6.926;2024-02-15T02:02:10;19.43;57.35
65239;SHT30;51827;51.186;6.926;2024-02-15T02:03:14;19.46;57.36
65239;SHT30;51827;51.186;6.926;2024-02-15T02:04:15;19.45;57.36
65239;SHT30;51827;51.186;6.926;2024-02-15T02:05:15;19.47;57.38
65239;SHT30;51827;51.186;6.926;2024-02-15T02:06:15;19.46;57.39
65239;SHT30;51827;51.186;6.926;2024-02-15T02:07:16;19.46;57.41
65239;SHT30;51827;51.186;6.926;2024-02-15T02:08:16;19.45;57.42
65239;SHT30;51827;51.186;6.926;2024-02-15T02:09:16;19.47;57.38
65239;SHT30;51827;51.186;6.926;2024-02-15T02:10:17;19.45;57.36
65239;SHT30;51827;51.186;6.926;2024-02-15T02:11:17;19.42;57.38
65239;SHT30;51827;51.186;6.926;2024-02-15T02:12:17;19.46;57.38
65239;SHT30;51827;51.186;6.926;2024-02-15T02:13:18;19.46;57.37
65239;SHT30;51827;51.186;6.926;2024-02-15T02:14:18;19.46;57.36
65239;SHT30;51827;51.186;6.926;2024-02-15T02:15:18;19.47;57.42
65239;SHT30;51827;51.186;6.926;2024-02-15T02:16:28;19.47;57.34
65239;SHT30;51827;51.186;6.926;2024-02-15T02:17:29;19.46;57.36
65239;SHT30;51827;51.186;6.926;2024-02-15T02:18:29;19.45;57.29
65239;SHT30;51827;51.186;6.926;2024-02-15T02:19:29;19.47;57.35
65239;SHT30;51827;51.186;6.926;2024-02-15T02:20:29;19.46;57.33
65239;SHT30;51827;51.186;6.926;2024-02-15T02:21:30;19.47;57.35
65239;SHT30;51827;51.186;6.926;2024-02-15T02:22:30;19.46;57.36
65239;SHT30;51827;51.186;6.926;2024-02-15T02:23:31;19.45;57.36
65239;SHT30;51827;51.186;6.926;2024-02-15T02:24:33;19.45;57.37
65239;SHT30;51827;51.186;6.926;2024-02-15T02:25:35;19.46;57.35
65239;SHT30;51827;51.186;6.926;2024-02-15T02:26:36;19.45;57.40
65239;SHT30;51827;51.186;6.926;2024-02-15T02:27:36;19.46;57.38
65239;SHT30;51827;51.186;6.926;2024-02-15T02:28:36;19.43;57.37
65239;SHT30;51827;51.186;6.926;2024-02-15T02:29:42;19.46;57.36
65239;SHT30;51827;51.186;6.926;2024-02-15T02:30:42;19.46;57.35
65239;SHT30;51827;51.186;6.926;2024-02-15T02:31:43;19.45;57.38
65239;SHT30;51827;51.186;6.926;2024-02-15T02:32:43;19.47;57.40
65239;SHT30;51827;51.186;6.926;2024-02-15T02:33:51;19.47;57.35
65239;SHT30;51827;51.186;6.926;2024-02-15T02:34:51;19.45;57.37
65239;SHT30;51827;51.186;6.926;2024-02-15T02:35:52;19.46;57.37
65239;SHT30;51827;51.186;6.926;2024-02-15T02:36:52;19.47;57.39
65239;SHT30;51827;51.186;6.926;2024-02-15T02:37:52;19.50;57.32
65239;SHT30;51827;51.186;6.926;2024-02-15T02:38:53;19.49;57.38
65239;SHT30;51827;51.186;6.926;2024-02-15T02:39:53;19.46;57.35
65239;SHT30;51827;51.186;6.926;2024-02-15T02:40:53;19.46;57.35
65239;SHT30;51827;51.186;6.926;2024-02-15T02:41:53;19.46;57.32
65239;SHT30;51827;51.186;6.926;2024-02-15T02:42:55;19.47;57.37
65239;SHT30;51827;51.186;6.926;2024-02-15T02:43:56;19.49;57.36
65239;SHT30;51827;51.186;6.926;2024-02-15T02:44:56;19.47;57.36
65239;SHT30;51827;51.186;6.926;2024-02-15T02:45:56;19.46;57.39
65239;SHT30;51827;51.186;6.926;2024-02-15T02:46:57;19.47;57.35
65239;SHT30;51827;51.186;6.926;2024-02-15T02:47:57;19.43;57.36
65239;SHT30;51827;51.186;6.926;2024-02-15T02:48:57;19.47;57.34
65239;SHT30;51827;51.186;6.926;2024-02-15T02:49:57;19.46;57.39
65239;SHT30;51827;51.186;6.926;2024-02-15T02:50:59;19.45;57.37
65239;SHT30;51827;51.186;6.926;2024-02-15T02:51:59;19.46;57.37
65239;SHT30;51827;51.186;6.926;2024-02-15T02:52:59;19.47;57.34
65239;SHT30;51827;51.186;6.926;2024-02-15T02:53:59;19.47;57.40
65239;SHT30;51827;51.186;6.926;2024-02-15T02:55:00;19.46;57.36
65239;SHT30;51827;51.186;6.926;2024-02-15T02:56:00;19.47;57.34
65239;SHT30;51827;51.186;6.926;2024-02-15T02:57:00;19.46;57.36
65239;SHT30;51827;51.186;6.926;2024-02-15T02:58:00;19.46;57.33
65239;SHT30;51827;51.186;6.926;2024-02-15T02:59:01;19.47;57.34
65239;SHT30;51827;51.186;6.926;2024-02-15T03:00:02;19.46;57.34
65239;SHT30;51827;51.186;6.926;2024-02-15T03:01:02;19.47;57.35
65239;SHT30;51827;51.186;6.926;2024-02-15T03:02:02;19.45;57.34
65239;SHT30;51827;51.186;6.926;2024-02-15T03:03:03;19.46;57.35
65239;SHT30;51827;51.186;6.926;2024-02-15T03:04:03;19.49;57.35
65239;SHT30;51827;51.186;6.926;2024-02-15T03:05:04;19.47;57.34
65239;SHT30;51827;51.186;6.926;2024-02-15T03:06:04;19.46;57.34
65239;SHT30;51827;51.186;6.926;2024-02-15T03:07:05;19.46;57.34
65239;SHT30;51827;51.186;6.926;2024-02-15T03:08:05;19.47;57.35
65239;SHT30;51827;51.186;6.926;2024-02-15T03:09:06;19.47;57.37
65239;SHT30;51827;51.186;6.926;2024-02-15T03:10:07;19.47;57.38
65239;SHT30;51827;51.186;6.926;2024-02-15T03:11:07;19.47;57.34
65239;SHT30;51827;51.186;6.926;2024-02-15T03:12:07;19.47;57.35
65239;SHT30;51827;51.186;6.926;2024-02-15T03:13:07;19.45;57.39
65239;SHT30;51827;51.186;6.926;2024-02-15T03:14:08;19.47;57.40
65239;SHT30;51827;51.186;6.926;2024-02-15T03:15:08;19.45;57.37
65239;SHT30;51827;51.186;6.926;2024-02-15T03:16:09;19.46;57.35
65239;SHT30;51827;51.186;6.926;2024-02-15T03:17:09;19.46;57.34
65239;SHT30;51827;51.186;6.926;2024-02-15T03:18:09;19.45;57.33
65239;SHT30;51827;51.186;6.926;2024-02-15T03:19:09;19.43;57.37
65239;SHT30;51827;51.186;6.926;2024-02-15T03:20:11;19.45;57.36
65239;SHT30;51827;51.186;6.926;2024-02-15T03:21:11;19.50;57.37
65239;SHT30;51827;51.186;6.926;2024-02-15T03:22:12;19.46;57.34
65239;SHT30;51827;51.186;6.926;2024-02-15T03:23:12;19.47;57.32
65239;SHT30;51827;51.186;6.926;2024-02-15T03:24:12;19.46;57.34
65239;SHT30;51827;51.186;6.926;2024-02-15T03:25:12;19.47;57.36
65239;SHT30;51827;51.186;6.926;2024-02-15T03:26:13;19.46;57.35
65239;SHT30;51827;51.186;6.926;2024-02-15T03:27:13;19.45;57.34
65239;SHT30;51827;51.186;6.926;2024-02-15T03:28:13;19.49;57.36
65239;SHT30;51827;51.186;6.926;2024-02-15T03:29:13;19.45;57.34
65239;SHT30;51827;51.186;6.926;2024-02-15T03:30:14;19.46;57.34
65239;SHT30;51827;51.186;6.926;2024-02-15T03:31:14;19.47;57.36
65239;SHT30;51827;51.186;6.926;2024-02-15T03:32:14;19.47;57.35
65239;SHT30;51827;51.186;6.926;2024-02-15T03:33:14;19.47;57.37
65239;SHT30;51827;51.186;6.926;2024-02-15T03:34:15;19.47;57.35
65239;SHT30;51827;51.186;6.926;2024-02-15T03:35:16;19.46;57.36
65239;SHT30;51827;51.186;6.926;2024-02-15T03:36:17;19.45;57.35
65239;SHT30;51827;51.186;6.926;2024-02-15T03:37:17;19.49;57.37
65239;SHT30;51827;51.186;6.926;2024-02-15T03:38:17;19.49;57.37
65239;SHT30;51827;51.186;6.926;2024-02-15T03:39:17;19.47;57.37
65239;SHT30;51827;51.186;6.926;2024-02-15T03:40:19;19.49;57.33
65239;SHT30;51827;51.186;6.926;2024-02-15T03:41:19;19.49;57.34
65239;SHT30;51827;51.186;6.926;2024-02-15T03:42:19;19.47;57.34
65239;SHT30;51827;51.186;6.926;2024-02-15T03:43:20;19.46;57.34
65239;SHT30;51827;51.186;6.926;2024-02-15T03:44:20;19.47;57.34
65239;SHT30;51827;51.186;6.926;2024-02-15T03:45:20;19.45;57.36
65239;SHT30;51827;51.186;6.926;2024-02-15T03:46:20;19.46;57.32
65239;SHT30;51827;51.186;6.926;2024-02-15T03:47:21;19.47;57.36
65239;SHT30;51827;51.186;6.926;2024-02-15T03:48:21;19.47;57.31
65239;SHT30;51827;51.186;6.926;2024-02-15T03:49:21;19.47;57.35
65239;SHT30;51827;51.186;6.926;2024-02-15T03:50:21;19.46;57.36
65239;SHT30;51827;51.186;6.926;2024-02-15T03:51:22;19.45;57.34
65239;SHT30;51827;51.186;6.926;2024-02-15T03:52:22;19.46;57.34
65239;SHT30;51827;51.186;6.926;2024-02-15T03:53:22;19.49;57.34
65239;SHT30;51827;51.186;6.926;2024-02-15T03:54:23;19.46;57.40
65239;SHT30;51827;51.186;6.926;2024-02-15T03:55:23;19.46;57.40
65239;SHT30;51827;51.186;6.926;2024-02-15T03:56:23;19.47;57.35
65239;SHT30;51827;51.186;6.926;2024-02-15T03:57:24;19.47;57.36
65239;SHT30;51827;51.186;6.926;2024-02-15T03:58:24;19.46;57.37
65239;SHT30;51827;51.186;6.926;2024-02-15T03:59:24;19.47;57.36
65239;SHT30;51827;51.186;6.926;2024-02-15T04:00:24;19.46;57.34
65239;SHT30;51827;51.186;6.926;2024-02-15T04:01:25;19.47;57.37
65239;SHT30;51827;51.186;6.926;2024-02-15T04:02:26;19.47;57.39
65239;SHT30;51827;51.186;6.926;2024-02-15T04:03:26;19.47;57.39
65239;SHT30;51827;51.186;6.926;2024-02-15T04:04:26;19.45;57.35
65239;SHT30;51827;51.186;6.926;2024-02-15T04:05:27;19.46;57.37
65239;SHT30;51827;51.186;6.926;2024-02-15T04:06:27;19.46;57.36
65239;SHT30;51827;51.186;6.926;2024-02-15T04:07:27;19.47;57.36
65239;SHT30;51827;51.186;6.926;2024-02-15T04:08:27;19.49;57.36
65239;SHT30;51827;51.186;6.926;2024-02-15T04:09:28;19.49;57.33
65239;SHT30;51827;51.186;6.926;2024-02-15T04:10:28;19.46;57.34
65239;SHT30;51827;51.186;6.926;2024-02-15T04:11:28;19.46;57.35
65239;SHT30;51827;51.186;6.926;2024-02-15T04:12:28;19.46;57.38
65239;SHT30;51827;51.186;6.926;2024-02-15T04:13:29;19.45;57.38
65239;SHT30;51827;51.186;6.926;2024-02-15T04:14:29;19.47;57.39
65239;SHT30;51827;51.186;6.926;2024-02-15T04:15:29;19.47;57.37
65239;SHT30;51827;51.186;6.926;2024-02-15T04:16:29;19.46;57.34
65239;SHT30;51827;51.186;6.926;2024-02-15T04:17:30;19.46;57.34
65239;SHT30;51827;51.186;6.926;2024-02-15T04:18:30;19.47;57.37
65239;SHT30;51827;51.186;6.926;2024-02-15T04:19:33;19.45;57.36
65239;SHT30;51827;51.186;6.926;2024-02-15T04:20:33;19.45;57.34
65239;SHT30;51827;51.186;6.926;2024-02-15T04:21:33;19.47;57.37
65239;SHT30;51827;51.186;6.926;2024-02-15T04:22:34;19.49;57.34
65239;SHT30;51827;51.186;6.926;2024-02-15T04:23:34;19.47;57.36
65239;SHT30;51827;51.186;6.926;2024-02-15T04:24:34;19.47;57.37
65239;SHT30;51827;51.186;6.926;2024-02-15T04:25:34;19.47;57.36
65239;SHT30;51827;51.186;6.926;2024-02-15T04:26:35;19.49;57.36
65239;SHT30;51827;51.186;6.926;2024-02-15T04:27:35;19.49;57.32
65239;SHT30;51827;51.186;6.926;2024-02-15T04:28:35;19.46;57.35
65239;SHT30;51827;51.186;6.926;2024-02-15T04:29:35;19.47;57.32
65239;SHT30;51827;51.186;6.926;2024-02-15T04:30:36;19.47;57.33
65239;SHT30;51827;51.186;6.926;2024-02-15T04:31:36;19.47;57.34
65239;SHT30;51827;51.186;6.926;2024-02-15T04:32:36;19.47;57.33
65239;SHT30;51827;51.186;6.926;2024-02-15T04:33:36;19.49;57.32
65239;SHT30;51827;51.186;6.926;2024-02-15T04:34:37;19.47;57.31
65239;SHT30;51827;51.186;6.926;2024-02-15T04:35:37;19.47;57.32
65239;SHT30;51827;51.186;6.926;2024-02-15T04:36:38;19.47;57.34
65239;SHT30;51827;51.186;6.926;2024-02-15T04:37:38;19.47;57.37
65239;SHT30;51827;51.186;6.926;2024-02-15T04:38:38;19.47;57.33
65239;SHT30;51827;51.186;6.926;2024-02-15T04:39:39;19.49;57.33
65239;SHT30;51827;51.186;6.926;2024-02-15T04:40:39;19.47;57.31
65239;SHT30;51827;51.186;6.926;2024-02-15T04:41:39;19.49;57.32
65239;SHT30;51827;51.186;6.926;2024-02-15T04:42:39;19.47;57.31
65239;SHT30;51827;51.186;6.926;2024-02-15T04:43:40;19.47;57.31
65239;SHT30;51827;51.186;6.926;2024-02-15T04:44:40;19.50;57.26
65239;SHT30;51827;51.186;6.926;2024-02-15T04:45:40;19.47;57.29
65239;SHT30;51827;51.186;6.926;2024-02-15T04:46:40;19.49;57.27
65239;SHT30;51827;51.186;6.926;2024-02-15T04:47:43;19.49;57.29
65239;SHT30;51827;51.186;6.926;2024-02-15T04:48:44;19.47;57.24
65239;SHT30;51827;51.186;6.926;2024-02-15T04:49:44;19.49;57.26
65239;SHT30;51827;51.186;6.926;2024-02-15T04:50:44;19.49;57.27
65239;SHT30;51827;51.186;6.926;2024-02-15T04:51:45;19.47;57.22
65239;SHT30;51827;51.186;6.926;2024-02-15T04:52:45;19.50;57.19
65239;SHT30;51827;51.186;6.926;2024-02-15T04:53:46;19.49;57.22
65239;SHT30;51827;51.186;6.926;2024-02-15T04:54:47;19.50;57.23
65239;SHT30;51827;51.186;6.926;2024-02-15T04:55:47;19.50;57.18
65239;SHT30;51827;51.186;6.926;2024-02-15T04:56:47;19.49;57.21
65239;SHT30;51827;51.186;6.926;2024-02-15T04:57:47;19.49;57.21
65239;SHT30;51827;51.186;6.926;2024-02-15T04:58:48;19.49;57.19
65239;SHT30;51827;51.186;6.926;2024-02-15T04:59:48;19.49;57.19
65239;SHT30;51827;51.186;6.926;2024-02-15T05:00:48;19.47;57.12
65239;SHT30;51827;51.186;6.926;2024-02-15T05:01:48;19.49;57.16
65239;SHT30;51827;51.186;6.926;2024-02-15T05:02:49;19.50;57.14
65239;SHT30;51827;51.186;6.926;2024-02-15T05:03:49;19.49;57.12
65239;SHT30;51827;51.186;6.926;2024-02-15T05:04:50;19.50;57.11
65239;SHT30;51827;51.186;6.926;2024-02-15T05:05:50;19.52;57.12
65239;SHT30;51827;51.186;6.926;2024-02-15T05:06:51;19.53;57.10
65239;SHT30;51827;51.186;6.926;2024-02-15T05:07:51;19.49;57.07
65239;SHT30;51827;51.186;6.926;2024-02-15T05:08:51;19.49;57.05
65239;SHT30;51827;51.186;6.926;2024-02-15T05:09:51;19.49;57.07
65239;SHT30;51827;51.186;6.926;2024-02-15T05:10:52;19.50;57.03
65239;SHT30;51827;51.186;6.926;2024-02-15T05:11:52;19.50;57.03
65239;SHT30;51827;51.186;6.926;2024-02-15T05:12:52;19.50;57.04
65239;SHT30;51827;51.186;6.926;2024-02-15T05:13:52;19.49;56.99
65239;SHT30;51827;51.186;6.926;2024-02-15T05:14:53;19.49;57.04
65239;SHT30;51827;51.186;6.926;2024-02-15T05:15:53;19.47;57.00
65239;SHT30;51827;51.186;6.926;2024-02-15T05:16:53;19.52;56.99
65239;SHT30;51827;51.186;6.926;2024-02-15T05:17:53;19.49;56.99
65239;SHT30;51827;51.186;6.926;2024-02-15T05:18:54;19.49;56.99
65239;SHT30;51827;51.186;6.926;2024-02-15T05:19:54;19.47;57.01
65239;SHT30;51827;51.186;6.926;2024-02-15T05:20:54;19.47;57.01
65239;SHT30;51827;51.186;6.926;2024-02-15T05:21:54;19.49;56.96
65239;SHT30;51827;51.186;6.926;2024-02-15T05:22:55;19.49;56.93
65239;SHT30;51827;51.186;6.926;2024-02-15T05:23:55;19.50;56.96
65239;SHT30;51827;51.186;6.926;2024-02-15T05:24:55;19.49;56.96
65239;SHT30;51827;51.186;6.926;2024-02-15T05:25:56;19.49;56.96
65239;SHT30;51827;51.186;6.926;2024-02-15T05:26:56;19.49;56.93
65239;SHT30;51827;51.186;6.926;2024-02-15T05:27:56;19.52;56.90
65239;SHT30;51827;51.186;6.926;2024-02-15T05:28:56;19.50;56.86
65239;SHT30;51827;51.186;6.926;2024-02-15T05:29:57;19.50;56.92
65239;SHT30;51827;51.186;6.926;2024-02-15T05:31:20;19.47;56.92
65239;SHT30;51827;51.186;6.926;2024-02-15T05:32:20;19.50;56.88
65239;SHT30;51827;51.186;6.926;2024-02-15T05:33:20;19.49;56.87
65239;SHT30;51827;51.186;6.926;2024-02-15T05:34:20;19.50;56.85
65239;SHT30;51827;51.186;6.926;2024-02-15T05:35:21;19.49;56.88
65239;SHT30;51827;51.186;6.926;2024-02-15T05:36:21;19.52;56.87
65239;SHT30;51827;51.186;6.926;2024-02-15T05:37:22;19.50;56.81
65239;SHT30;51827;51.186;6.926;2024-02-15T05:38:22;19.50;56.81
65239;SHT30;51827;51.186;6.926;2024-02-15T05:39:22;19.49;56.86
65239;SHT30;51827;51.186;6.926;2024-02-15T05:40:23;19.53;56.85
65239;SHT30;51827;51.186;6.926;2024-02-15T05:41:23;19.49;56.83
65239;SHT30;51827;51.186;6.926;2024-02-15T05:42:23;19.52;56.79
65239;SHT30;51827;51.186;6.926;2024-02-15T05:43:23;19.49;56.81
65239;SHT30;51827;51.186;6.926;2024-02-15T05:44:24;19.50;56.85
65239;SHT30;51827;51.186;6.926;2024-02-15T05:46:24;19.52;56.85
65239;SHT30;51827;51.186;6.926;2024-02-15T05:47:24;19.52;56.86
65239;SHT30;51827;51.186;6.926;2024-02-15T05:48:26;19.50;56.86
65239;SHT30;51827;51.186;6.926;2024-02-15T05:49:26;19.50;56.88
65239;SHT30;51827;51.186;6.926;2024-02-15T05:50:27;19.50;56.84
65239;SHT30;51827;51.186;6.926;2024-02-15T05:51:27;19.49;56.86
65239;SHT30;51827;51.186;6.926;2024-02-15T05:52:27;19.49;56.87
65239;SHT30;51827;51.186;6.926;2024-02-15T05:53:27;19.52;56.89
65239;SHT30;51827;51.186;6.926;2024-02-15T05:54:28;19.49;56.91
65239;SHT30;51827;51.186;6.926;2024-02-15T05:55:28;19.52;56.87
65239;SHT30;51827;51.186;6.926;2024-02-15T05:56:28;19.52;56.89
65239;SHT30;51827;51.186;6.926;2024-02-15T05:57:28;19.52;56.84
65239;SHT30;51827;51.186;6.926;2024-02-15T05:58:29;19.52;56.88
65239;SHT30;51827;51.186;6.926;2024-02-15T05:59:29;19.52;56.85
65239;SHT30;51827;51.186;6.926;2024-02-15T06:00:30;19.53;56.87
65239;SHT30;51827;51.186;6.926;2024-02-15T06:01:30;19.52;56.87
65239;SHT30;51827;51.186;6.926;2024-02-15T06:02:30;19.52;56.83
65239;SHT30;51827;51.186;6.926;2024-02-15T06:03:31;19.50;56.85
65239;SHT30;51827;51.186;6.926;2024-02-15T06:04:31;19.52;56.86
65239;SHT30;51827;51.186;6.926;2024-02-15T06:05:32;19.50;56.89
65239;SHT30;51827;51.186;6.926;2024-02-15T06:06:32;19.53;56.87
65239;SHT30;51827;51.186;6.926;2024-02-15T06:07:32;19.52;56.88
65239;SHT30;51827;51.186;6.926;2024-02-15T06:08:36;19.52;56.87
65239;SHT30;51827;51.186;6.926;2024-02-15T06:09:37;19.52;56.90
65239;SHT30;51827;51.186;6.926;2024-02-15T06:10:37;19.50;56.87
65239;SHT30;51827;51.186;6.926;2024-02-15T06:11:37;19.52;56.86
65239;SHT30;51827;51.186;6.926;2024-02-15T06:12:38;19.53;56.85
65239;SHT30;51827;51.186;6.926;2024-02-15T06:13:38;19.53;56.84
65239;SHT30;51827;51.186;6.926;2024-02-15T06:14:38;19.52;56.83
65239;SHT30;51827;51.186;6.926;2024-02-15T06:15:38;19.52;56.86
65239;SHT30;51827;51.186;6.926;2024-02-15T06:16:45;19.52;56.87
65239;SHT30;51827;51.186;6.926;2024-02-15T06:17:46;19.53;56.88
65239;SHT30;51827;51.186;6.926;2024-02-15T06:18:46;19.52;56.84
65239;SHT30;51827;51.186;6.926;2024-02-15T06:19:46;19.50;56.85
65239;SHT30;51827;51.186;6.926;2024-02-15T06:20:47;19.52;56.86
65239;SHT30;51827;51.186;6.926;2024-02-15T06:21:48;19.52;56.84
65239;SHT30;51827;51.186;6.926;2024-02-15T06:22:48;19.53;56.88